createdAt,value
2016-12-05T00:04:47.635Z,1030.2
2016-12-05T00:09:52.054Z,1030.1
2016-12-05T00:14:56.133Z,1030.1
2016-12-05T00:20:00.212Z,1030.1
2016-12-05T00:25:04.294Z,1030
2016-12-05T00:30:09.042Z,1030
2016-12-05T00:35:13.119Z,1030
2016-12-05T00:40:17.198Z,1030
2016-12-05T00:45:21.618Z,1030
2016-12-05T00:50:26.036Z,1029.9
2016-12-05T00:55:30.113Z,1030
2016-12-05T01:00:34.196Z,1030
2016-12-05T01:05:38.276Z,1030.1
2016-12-05T01:10:42.358Z,1030.1
2016-12-05T01:15:46.436Z,1030.1
2016-12-05T01:20:50.854Z,1030
2016-12-05T01:25:55.268Z,1030.1
2016-12-05T01:30:59.348Z,1030
2016-12-05T01:36:03.765Z,1030
2016-12-05T01:41:07.838Z,1030.1
2016-12-05T01:46:11.913Z,1030
2016-12-05T01:51:16.333Z,1029.9
2016-12-05T01:56:20.415Z,1029.9
2016-12-05T02:01:24.496Z,1029.8
2016-12-05T02:06:28.580Z,1029.8
2016-12-05T02:11:33.000Z,1029.7
2016-12-05T02:16:37.419Z,1029.7
2016-12-05T02:21:41.497Z,1029.7
2016-12-05T02:26:46.249Z,1029.6
2016-12-05T02:31:50.664Z,1029.6
2016-12-05T02:36:55.077Z,1029.6
2016-12-05T02:41:59.504Z,1029.6
2016-12-05T02:47:04.249Z,1029.5
2016-12-05T02:52:08.667Z,1029.4
2016-12-05T02:57:13.429Z,1029.5
2016-12-05T03:02:17.507Z,1029.5
2016-12-05T03:07:21.588Z,1029.4
2016-12-05T03:12:25.662Z,1029.5
2016-12-05T03:17:30.075Z,1029.5
2016-12-05T03:22:35.495Z,1029.4
2016-12-05T03:27:40.576Z,1029.3
2016-12-05T03:32:45.331Z,1029.3
2016-12-05T03:37:49.411Z,1029.3
2016-12-05T03:42:53.494Z,1029.3
2016-12-05T03:47:57.577Z,1029.2
2016-12-05T03:53:02.654Z,1029.1
2016-12-05T03:58:07.069Z,1029.1
2016-12-05T04:03:11.152Z,1029.1
2016-12-05T04:08:15.567Z,1029.1
2016-12-05T04:13:19.645Z,1029
2016-12-05T04:18:24.053Z,1028.9
2016-12-05T04:23:28.129Z,1028.9
2016-12-05T04:28:32.212Z,1028.9
2016-12-05T04:33:36.956Z,1028.9
2016-12-05T04:38:41.040Z,1028.9
2016-12-05T04:43:45.458Z,1028.8
2016-12-05T04:48:49.537Z,1028.8
2016-12-05T04:53:53.614Z,1028.8
2016-12-05T04:58:57.696Z,1028.8
2016-12-05T05:04:01.779Z,1028.9
2016-12-05T05:09:05.880Z,1028.9
2016-12-05T05:14:09.986Z,1028.8
2016-12-05T05:19:14.070Z,1028.8
2016-12-05T05:24:18.155Z,1028.8
2016-12-05T05:29:22.237Z,1028.7
2016-12-05T05:34:26.341Z,1028.7
2016-12-05T05:39:31.108Z,1028.6
2016-12-05T05:44:35.190Z,1028.6
2016-12-05T05:49:39.274Z,1028.6
2016-12-05T05:54:43.581Z,1028.6
2016-12-05T05:59:47.662Z,1028.6
2016-12-05T06:04:51.745Z,1028.6
2016-12-05T06:09:55.824Z,1028.6
2016-12-05T06:15:00.603Z,1028.5
2016-12-05T06:20:05.023Z,1028.4
2016-12-05T06:25:09.101Z,1028.4
2016-12-05T06:30:13.525Z,1028.3
2016-12-05T06:35:17.962Z,1028.4
2016-12-05T06:40:22.045Z,1028.4
2016-12-05T06:45:26.135Z,1028.4
2016-12-05T06:50:30.214Z,1028.3
2016-12-05T06:55:34.628Z,1028.3
2016-12-05T07:00:39.047Z,1028.3
2016-12-05T07:05:43.139Z,1028.3
2016-12-05T07:10:47.558Z,1028.2
2016-12-05T07:15:51.969Z,1028.2
2016-12-05T07:20:56.387Z,1028.2
2016-12-05T07:26:01.143Z,1028.1
2016-12-05T07:31:05.236Z,1028.1
2016-12-05T07:36:09.990Z,1028.2
2016-12-05T07:41:14.406Z,1028.1
2016-12-05T07:46:18.830Z,1028.1
2016-12-05T07:51:22.926Z,1028.1
2016-12-05T07:56:27.007Z,1028
2016-12-05T08:01:31.234Z,1028
2016-12-05T08:06:35.647Z,1028
2016-12-05T08:11:39.936Z,1028
2016-12-05T08:16:44.041Z,1028.1
2016-12-05T08:21:48.785Z,1028.2
2016-12-05T08:26:53.208Z,1028.2
2016-12-05T08:31:57.969Z,1028.3
2016-12-05T08:37:02.716Z,1028.3
2016-12-05T08:42:06.805Z,1028.3
2016-12-05T08:47:10.888Z,1028.3
2016-12-05T08:52:14.972Z,1028.3
2016-12-05T08:57:19.056Z,1028.3
2016-12-05T09:02:23.141Z,1028.3
2016-12-05T09:07:27.220Z,1028.3
2016-12-05T09:12:32.313Z,1028.2
2016-12-05T09:17:36.734Z,1028.2
2016-12-05T09:22:41.483Z,1028.3
2016-12-05T09:27:45.566Z,1028.4
2016-12-05T09:32:49.645Z,1028.4
2016-12-05T09:37:53.732Z,1028.3
2016-12-05T09:42:57.824Z,1028.3
2016-12-05T09:48:01.908Z,1028.4
2016-12-05T09:53:06.661Z,1028.3
2016-12-05T09:58:10.750Z,1028.3
2016-12-05T10:03:15.516Z,1028.3
2016-12-05T10:08:19.942Z,1028.3
2016-12-05T10:13:24.029Z,1028.3
2016-12-05T10:18:28.119Z,1028.2
2016-12-05T10:23:32.205Z,1028.2
2016-12-05T10:28:36.973Z,1028.1
2016-12-05T10:33:41.743Z,1028
2016-12-05T10:38:46.498Z,1028
2016-12-05T10:43:50.918Z,1028
2016-12-05T10:48:55.006Z,1028
2016-12-05T10:53:59.422Z,1027.9
2016-12-05T10:59:03.502Z,1028
2016-12-05T11:04:07.640Z,1027.9
2016-12-05T11:09:11.734Z,1027.8
2016-12-05T11:14:15.924Z,1027.7
2016-12-05T11:19:20.346Z,1027.7
2016-12-05T11:24:24.431Z,1027.7
2016-12-05T11:29:29.177Z,1027.6
2016-12-05T11:34:33.268Z,1027.6
2016-12-05T11:39:37.354Z,1027.6
2016-12-05T11:44:41.772Z,1027.6
2016-12-05T11:49:45.859Z,1027.5
2016-12-05T11:54:49.951Z,1027.4
2016-12-05T11:59:54.714Z,1027.4
2016-12-05T12:04:59.139Z,1027.4
2016-12-05T12:10:03.560Z,1027.4
2016-12-05T12:15:07.979Z,1027.4
2016-12-05T12:20:12.427Z,1027.4
2016-12-05T12:25:16.857Z,1027.3
2016-12-05T12:30:21.288Z,1027.2
2016-12-05T12:35:25.715Z,1027.2
2016-12-05T12:40:30.485Z,1027.3
2016-12-05T12:45:34.594Z,1027.3
2016-12-05T12:50:39.352Z,1027.2
2016-12-05T12:55:43.447Z,1027.3
2016-12-05T13:00:47.872Z,1027.2
2016-12-05T13:05:52.308Z,1027.2
2016-12-05T13:10:56.735Z,1027.2
2016-12-05T13:16:01.192Z,1027.2
2016-12-05T13:21:05.306Z,1027.1
2016-12-05T13:26:09.766Z,1027.1
2016-12-05T13:36:33.245Z,1027.1
2016-12-05T13:41:37.627Z,1027.1
2016-12-05T13:46:42.392Z,1027.1
2016-12-05T13:51:46.844Z,1027.1
2016-12-05T13:56:51.298Z,1027
2016-12-05T14:01:56.509Z,1027
2016-12-05T14:07:01.277Z,1027.2
2016-12-05T14:12:06.038Z,1027.1
2016-12-05T14:17:10.126Z,1027.2
2016-12-05T14:22:14.555Z,1027.2
2016-12-05T14:27:18.642Z,1027.2
2016-12-05T14:32:22.726Z,1027.2
2016-12-05T14:37:27.156Z,1027.2
2016-12-05T14:42:31.576Z,1027.2
2016-12-05T14:47:36.037Z,1027.2
2016-12-05T14:52:40.134Z,1027.3
2016-12-05T14:57:44.249Z,1027.2
2016-12-05T15:02:49.073Z,1027.2
2016-12-05T15:07:53.194Z,1027.2
2016-12-05T15:12:57.273Z,1027.2
2016-12-05T15:18:02.035Z,1027.2
2016-12-05T15:23:06.124Z,1027.3
2016-12-05T15:28:10.215Z,1027.4
2016-12-05T15:33:14.794Z,1027.4
2016-12-05T15:38:18.876Z,1027.3
2016-12-05T15:43:23.298Z,1027.4
2016-12-05T15:48:27.413Z,1027.4
2016-12-05T15:53:31.497Z,1027.4
2016-12-05T15:58:35.624Z,1027.4
2016-12-05T16:03:40.830Z,1027.4
2016-12-05T16:08:45.495Z,1027.4
2016-12-05T16:13:49.576Z,1027.4
2016-12-05T16:18:54.014Z,1027.4
2016-12-05T16:23:58.096Z,1027.4
2016-12-05T16:29:02.519Z,1027.4
2016-12-05T16:34:06.946Z,1027.4
2016-12-05T16:39:11.363Z,1027.4
2016-12-05T16:44:15.446Z,1027.4
2016-12-05T16:49:20.073Z,1027.4
2016-12-05T16:54:24.500Z,1027.4
2016-12-05T16:59:28.832Z,1027.3
2016-12-05T17:04:32.930Z,1027.3
2016-12-05T17:09:37.042Z,1027.3
2016-12-05T17:14:41.467Z,1027.4
2016-12-05T17:19:45.563Z,1027.4
2016-12-05T17:24:49.650Z,1027.3
2016-12-05T17:29:53.755Z,1027.3
2016-12-05T17:34:57.838Z,1027.3
2016-12-05T17:40:02.262Z,1027.2
2016-12-05T17:45:07.349Z,1027.2
2016-12-05T17:50:11.428Z,1027.2
2016-12-05T17:55:16.180Z,1027.2
2016-12-05T18:00:20.634Z,1027.2
2016-12-05T18:05:24.731Z,1027.2
2016-12-05T18:10:29.154Z,1027.2
2016-12-05T18:15:33.574Z,1027.2
2016-12-05T18:20:37.659Z,1027.3
2016-12-05T18:25:42.081Z,1027.3
2016-12-05T18:30:46.163Z,1027.3
2016-12-05T18:35:50.244Z,1027.3
2016-12-05T18:40:54.665Z,1027.3
2016-12-05T18:45:59.414Z,1027.3
2016-12-05T18:51:03.837Z,1027.3
2016-12-05T18:56:08.594Z,1027.4
2016-12-05T19:01:12.683Z,1027.4
2016-12-05T19:06:16.767Z,1027.3
2016-12-05T19:11:21.183Z,1027.4
2016-12-05T19:16:25.625Z,1027.4
2016-12-05T19:21:29.726Z,1027.4
2016-12-05T19:26:34.811Z,1027.5
2016-12-05T19:31:39.247Z,1027.5
2016-12-05T19:36:43.340Z,1027.6
2016-12-05T19:41:47.764Z,1027.7
2016-12-05T19:46:51.856Z,1027.6
2016-12-05T19:51:56.621Z,1027.6
2016-12-05T19:57:00.725Z,1027.7
2016-12-05T20:02:04.803Z,1027.8
2016-12-05T20:07:08.902Z,1027.8
2016-12-05T20:12:13.251Z,1027.8
2016-12-05T20:17:18.034Z,1027.8
2016-12-05T20:22:22.469Z,1027.8
2016-12-05T20:27:26.548Z,1027.8
2016-12-05T20:32:31.302Z,1027.8
2016-12-05T20:37:35.735Z,1027.8
2016-12-05T20:42:40.180Z,1027.9
2016-12-05T20:47:44.833Z,1027.9
2016-12-05T20:52:49.568Z,1027.8
2016-12-05T20:57:54.790Z,1027.8
2016-12-05T21:02:59.296Z,1027.7
2016-12-05T21:08:03.718Z,1027.9
2016-12-05T21:13:08.500Z,1027.9
2016-12-05T21:18:12.591Z,1027.8
2016-12-05T21:23:17.775Z,1027.8
2016-12-05T21:28:22.185Z,1027.8
2016-12-05T21:33:26.603Z,1027.9
2016-12-05T21:38:31.013Z,1027.9
2016-12-05T21:43:36.101Z,1027.8
2016-12-05T21:48:40.784Z,1028
2016-12-05T21:53:45.209Z,1028
2016-12-05T21:58:49.293Z,1028
2016-12-05T22:03:53.376Z,1028
2016-12-05T22:08:57.455Z,1028
2016-12-05T22:14:01.872Z,1028
2016-12-05T22:19:05.949Z,1028
2016-12-05T22:24:10.025Z,1028.1
2016-12-05T22:29:14.441Z,1028.1
2016-12-05T22:34:18.854Z,1028.2
2016-12-05T22:39:23.265Z,1028.1
2016-12-05T22:44:27.368Z,1028.2
2016-12-05T22:49:32.116Z,1028.1
2016-12-05T22:54:36.861Z,1028.2
2016-12-05T22:59:41.601Z,1028.2
2016-12-05T23:04:46.355Z,1028.2
2016-12-05T23:09:50.432Z,1028.2
2016-12-05T23:14:54.509Z,1028.2
2016-12-05T23:19:58.588Z,1028.2
2016-12-05T23:25:03.333Z,1028
2016-12-05T23:30:07.753Z,1028.1
2016-12-05T23:35:12.496Z,1028.2
2016-12-05T23:40:16.906Z,1028.1
2016-12-05T23:45:20.980Z,1028.1
2016-12-05T23:50:25.720Z,1028.2
2016-12-05T23:55:29.806Z,1028.1
